createdAt,value
2019-05-17T00:00:58.845Z,8.00
2019-05-17T00:02:06.819Z,8.00
2019-05-17T00:03:11.408Z,8.00
2019-05-17T00:04:16.588Z,8.00
2019-05-17T00:05:22.063Z,8.00
2019-05-17T00:06:27.546Z,8.00
2019-05-17T00:07:33.014Z,8.00
2019-05-17T00:08:38.718Z,8.10
2019-05-17T00:09:44.944Z,8.00
2019-05-17T00:10:50.653Z,8.00
2019-05-17T00:11:56.888Z,8.00
2019-05-17T00:13:02.069Z,8.00
2019-05-17T00:14:07.269Z,8.10
2019-05-17T00:15:12.419Z,8.10
2019-05-17T00:16:17.712Z,8.10
2019-05-17T00:17:23.435Z,8.10
2019-05-17T00:18:28.667Z,8.10
2019-05-17T00:19:33.387Z,8.10
2019-05-17T00:20:39.595Z,8.10
2019-05-17T00:21:44.265Z,8.10
2019-05-17T00:22:49.462Z,8.00
2019-05-17T00:23:54.059Z,8.00
2019-05-17T00:24:59.252Z,8.00
2019-05-17T00:26:03.894Z,8.00
2019-05-17T00:27:09.086Z,7.90
2019-05-17T00:28:13.894Z,7.90
2019-05-17T00:29:19.067Z,7.90
2019-05-17T00:30:23.730Z,7.90
2019-05-17T00:31:28.906Z,7.90
2019-05-17T00:32:33.523Z,7.80
2019-05-17T00:33:38.719Z,7.80
2019-05-17T00:34:47.459Z,7.70
2019-05-17T00:35:53.188Z,7.70
2019-05-17T00:36:57.836Z,7.70
2019-05-17T00:38:03.042Z,7.60
2019-05-17T00:39:07.851Z,7.60
2019-05-17T00:40:13.663Z,7.60
2019-05-17T00:41:18.323Z,7.50
2019-05-17T00:42:23.451Z,7.50
2019-05-17T00:43:28.170Z,7.50
2019-05-17T00:44:33.376Z,7.50
2019-05-17T00:45:37.954Z,7.40
2019-05-17T00:46:43.125Z,7.40
2019-05-17T00:47:47.811Z,7.40
2019-05-17T00:48:52.957Z,7.40
2019-05-17T00:49:57.545Z,7.40
2019-05-17T00:51:02.754Z,7.40
2019-05-17T00:52:07.436Z,7.40
2019-05-17T00:53:12.648Z,7.40
2019-05-17T00:54:17.590Z,7.40
2019-05-17T00:55:22.891Z,7.40
2019-05-17T00:56:27.571Z,7.40
2019-05-17T00:57:33.992Z,7.40
2019-05-17T00:58:39.552Z,7.40
2019-05-17T00:59:44.711Z,7.40
2019-05-17T01:00:49.411Z,7.40
2019-05-17T01:01:56.193Z,7.50
2019-05-17T01:03:00.860Z,7.50
2019-05-17T01:04:06.828Z,7.50
2019-05-17T01:05:12.125Z,7.50
2019-05-17T01:06:17.259Z,7.50
2019-05-17T01:07:22.828Z,7.50
2019-05-17T01:08:27.957Z,7.60
2019-05-17T01:09:32.581Z,7.50
2019-05-17T01:10:38.224Z,7.50
2019-05-17T01:11:42.771Z,7.50
2019-05-17T01:12:48.220Z,7.60
2019-05-17T01:13:55.689Z,7.50
2019-05-17T01:14:59.746Z,7.60
2019-05-17T01:16:04.358Z,7.60
2019-05-17T01:17:09.486Z,7.60
2019-05-17T01:18:16.134Z,7.60
2019-05-17T01:19:21.086Z,7.60
2019-05-17T01:20:27.717Z,7.60
2019-05-17T01:21:32.607Z,7.60
2019-05-17T01:22:37.587Z,7.60
2019-05-17T01:23:42.838Z,7.60
2019-05-17T01:24:47.426Z,7.60
2019-05-17T01:25:52.569Z,7.60
2019-05-17T01:26:57.459Z,7.60
2019-05-17T01:28:02.735Z,7.60
2019-05-17T01:29:07.379Z,7.60
2019-05-17T01:30:12.873Z,7.50
2019-05-17T01:31:17.517Z,7.60
2019-05-17T01:32:22.687Z,7.60
2019-05-17T01:33:27.552Z,7.60
2019-05-17T01:34:32.700Z,7.50
2019-05-17T01:35:37.756Z,7.60
2019-05-17T01:36:42.985Z,7.50
2019-05-17T01:37:47.722Z,7.50
2019-05-17T01:38:52.939Z,7.50
2019-05-17T01:39:57.525Z,7.50
2019-05-17T01:41:04.044Z,7.50
2019-05-17T01:42:08.637Z,7.50
2019-05-17T01:43:13.751Z,7.50
2019-05-17T01:44:18.373Z,7.50
2019-05-17T01:45:23.703Z,7.50
2019-05-17T01:46:28.274Z,7.50
2019-05-17T01:47:33.484Z,7.50
2019-05-17T01:48:38.079Z,7.50
2019-05-17T01:49:43.222Z,7.50
2019-05-17T01:50:47.884Z,7.50
2019-05-17T01:51:52.989Z,7.50
2019-05-17T01:52:57.574Z,7.50
2019-05-17T01:54:02.726Z,7.50
2019-05-17T01:55:07.602Z,7.50
2019-05-17T01:56:12.725Z,7.40
2019-05-17T01:57:17.310Z,7.40
2019-05-17T01:58:22.451Z,7.40
2019-05-17T01:59:27.106Z,7.40
2019-05-17T02:00:32.395Z,7.40
2019-05-17T02:01:37.603Z,7.50
2019-05-17T02:02:44.023Z,7.40
2019-05-17T02:03:48.632Z,7.50
2019-05-17T02:04:53.757Z,7.50
2019-05-17T02:05:58.489Z,7.40
2019-05-17T02:07:03.604Z,7.40
2019-05-17T02:08:08.367Z,7.40
2019-05-17T02:09:13.495Z,7.30
2019-05-17T02:10:18.263Z,7.30
2019-05-17T02:11:23.504Z,7.30
2019-05-17T02:12:28.175Z,7.30
2019-05-17T02:13:33.367Z,7.30
2019-05-17T02:14:38.903Z,7.40
2019-05-17T02:15:46.829Z,7.40
2019-05-17T02:16:50.641Z,7.50
2019-05-17T02:17:57.361Z,7.40
2019-05-17T02:19:02.168Z,7.40
2019-05-17T02:20:08.192Z,7.40
2019-05-17T02:21:12.775Z,7.40
2019-05-17T02:22:17.913Z,7.40
2019-05-17T02:23:23.511Z,7.30
2019-05-17T02:24:28.624Z,7.30
2019-05-17T02:25:33.235Z,7.30
2019-05-17T02:26:38.386Z,7.30
2019-05-17T02:27:44.712Z,7.30
2019-05-17T02:28:51.997Z,7.30
2019-05-17T02:29:56.408Z,7.30
2019-05-17T02:31:03.473Z,7.30
2019-05-17T02:32:08.373Z,7.30
2019-05-17T02:33:13.886Z,7.20
2019-05-17T02:34:18.602Z,7.20
2019-05-17T02:35:23.735Z,7.30
2019-05-17T02:36:28.420Z,7.30
2019-05-17T02:37:34.592Z,7.30
2019-05-17T02:38:39.179Z,7.30
2019-05-17T02:39:58.037Z,7.30
2019-05-17T02:40:53.262Z,7.20
2019-05-17T02:41:57.415Z,7.20
2019-05-17T02:43:03.226Z,7.20
2019-05-17T02:44:08.899Z,7.30
2019-05-17T02:45:14.196Z,7.20
2019-05-17T02:46:22.848Z,7.20
2019-05-17T02:47:25.678Z,7.30
2019-05-17T02:48:33.808Z,7.30
2019-05-17T02:49:37.105Z,7.20
2019-05-17T02:50:43.625Z,7.30
2019-05-17T02:51:49.009Z,7.20
2019-05-17T02:52:54.127Z,7.20
2019-05-17T02:53:58.738Z,7.20
2019-05-17T02:55:04.355Z,7.20
2019-05-17T02:56:12.996Z,7.20
2019-05-17T02:57:15.990Z,7.20
2019-05-17T02:58:23.306Z,7.20
2019-05-17T02:59:27.512Z,7.10
2019-05-17T03:00:33.963Z,7.10
2019-05-17T03:01:38.931Z,7.10
2019-05-17T03:02:44.076Z,7.20
2019-05-17T03:03:52.631Z,7.10
2019-05-17T03:04:55.785Z,7.10
2019-05-17T03:06:02.992Z,7.10
2019-05-17T03:07:07.326Z,7.10
2019-05-17T03:08:12.541Z,7.00
2019-05-17T03:09:17.238Z,7.00
2019-05-17T03:10:28.475Z,7.10
2019-05-17T03:11:28.795Z,7.10
2019-05-17T03:12:33.939Z,7.10
2019-05-17T03:13:38.495Z,7.10
2019-05-17T03:14:43.638Z,7.10
2019-05-17T03:15:48.269Z,7.10
2019-05-17T03:16:53.807Z,7.20
2019-05-17T03:17:58.470Z,7.20
2019-05-17T03:19:04.407Z,7.20
2019-05-17T03:20:12.493Z,7.20
2019-05-17T03:21:16.411Z,7.20
2019-05-17T03:22:23.160Z,7.20
2019-05-17T03:23:27.846Z,7.20
2019-05-17T03:24:33.305Z,7.20
2019-05-17T03:25:38.768Z,7.30
2019-05-17T03:26:43.426Z,7.30
2019-05-17T03:27:48.791Z,7.30
2019-05-17T03:28:53.944Z,7.30
2019-05-17T03:30:03.734Z,7.30
2019-05-17T03:31:08.741Z,7.30
2019-05-17T03:32:17.432Z,7.30
2019-05-17T03:33:26.198Z,7.30
2019-05-17T03:34:28.676Z,7.30
2019-05-17T03:35:37.931Z,7.30
2019-05-17T03:36:46.228Z,7.30
2019-05-17T03:37:47.288Z,7.30
2019-05-17T03:38:53.392Z,7.30
2019-05-17T03:39:58.320Z,7.30
2019-05-17T03:41:17.887Z,7.30
2019-05-17T03:42:12.956Z,7.30
2019-05-17T03:43:16.697Z,7.20
2019-05-17T03:44:22.664Z,7.20
2019-05-17T03:45:28.024Z,7.20
2019-05-17T03:46:33.408Z,7.20
2019-05-17T03:47:38.705Z,7.20
2019-05-17T03:48:43.721Z,7.30
2019-05-17T03:49:49.039Z,7.30
2019-05-17T03:50:53.692Z,7.30
2019-05-17T03:51:58.838Z,7.30
2019-05-17T03:53:03.640Z,7.30
2019-05-17T03:54:08.741Z,7.30
2019-05-17T03:55:13.912Z,7.30
2019-05-17T03:56:22.214Z,7.30
2019-05-17T03:57:25.662Z,7.30
2019-05-17T03:58:33.361Z,7.30
2019-05-17T03:59:37.622Z,7.30
2019-05-17T04:00:43.099Z,7.30
2019-05-17T04:01:52.507Z,7.30
2019-05-17T04:02:55.850Z,7.30
2019-05-17T04:04:02.967Z,7.30
2019-05-17T04:05:07.435Z,7.40
2019-05-17T04:06:13.289Z,7.40
2019-05-17T04:07:18.710Z,7.40
2019-05-17T04:08:23.379Z,7.40
2019-05-17T04:09:28.680Z,7.40
2019-05-17T04:10:33.910Z,7.50
2019-05-17T04:11:42.696Z,7.50
2019-05-17T04:12:46.300Z,7.60
2019-05-17T04:13:53.757Z,7.60
2019-05-17T04:14:57.932Z,7.60
2019-05-17T04:16:08.396Z,7.70
2019-05-17T04:17:09.538Z,7.70
2019-05-17T04:18:14.691Z,7.70
2019-05-17T04:19:22.734Z,7.70
2019-05-17T04:20:26.174Z,7.80
2019-05-17T04:21:33.889Z,7.80
2019-05-17T04:22:38.309Z,7.90
2019-05-17T04:23:43.173Z,7.90
2019-05-17T04:24:48.516Z,7.80
2019-05-17T04:25:53.488Z,7.80
2019-05-17T04:26:58.827Z,7.90
2019-05-17T04:28:03.423Z,7.90
2019-05-17T04:29:08.564Z,7.90
2019-05-17T04:30:13.775Z,7.90
2019-05-17T04:31:19.147Z,7.90
2019-05-17T04:32:23.739Z,7.90
2019-05-17T04:33:28.949Z,7.90
2019-05-17T04:34:34.018Z,7.90
2019-05-17T04:35:39.307Z,7.90
2019-05-17T04:36:43.988Z,8.00
2019-05-17T04:37:49.167Z,8.00
2019-05-17T04:38:54.222Z,8.00
2019-05-17T04:39:59.348Z,8.10
2019-05-17T04:41:03.971Z,8.20
2019-05-17T04:42:09.115Z,8.20
2019-05-17T04:43:13.923Z,8.30
2019-05-17T04:44:19.210Z,8.30
2019-05-17T04:45:23.945Z,8.30
2019-05-17T04:46:32.424Z,8.30
2019-05-17T04:47:35.531Z,8.30
2019-05-17T04:48:43.910Z,8.40
2019-05-17T04:49:47.409Z,8.40
2019-05-17T04:50:53.619Z,8.40
2019-05-17T04:51:58.612Z,8.40
2019-05-17T04:53:03.883Z,8.50
2019-05-17T04:54:08.555Z,8.50
2019-05-17T04:55:14.215Z,8.60
2019-05-17T04:56:18.960Z,8.50
2019-05-17T04:57:24.134Z,8.50
2019-05-17T04:58:28.942Z,8.40
2019-05-17T04:59:35.085Z,8.40
2019-05-17T05:00:42.797Z,8.40
2019-05-17T05:01:46.752Z,8.40
2019-05-17T05:02:52.774Z,8.40
2019-05-17T05:03:58.165Z,8.50
2019-05-17T05:05:03.573Z,8.50
2019-05-17T05:06:09.063Z,8.60
2019-05-17T05:07:14.020Z,8.60
2019-05-17T05:08:22.244Z,8.60
2019-05-17T05:09:25.675Z,8.60
2019-05-17T05:10:33.343Z,8.70
2019-05-17T05:11:51.851Z,8.70
2019-05-17T05:12:44.766Z,8.80
2019-05-17T05:13:49.495Z,8.90
2019-05-17T05:14:54.642Z,8.80
2019-05-17T05:15:59.256Z,8.80
2019-05-17T05:17:04.428Z,8.80
2019-05-17T05:18:12.946Z,8.80
2019-05-17T05:19:17.646Z,8.90
2019-05-17T05:20:22.314Z,8.90
2019-05-17T05:21:27.523Z,9.00
2019-05-17T05:22:33.043Z,9.00
2019-05-17T05:23:38.622Z,9.00
2019-05-17T05:24:43.236Z,9.10
2019-05-17T05:25:48.450Z,9.10
2019-05-17T05:26:53.030Z,9.20
2019-05-17T05:27:58.187Z,9.30
2019-05-17T05:29:02.861Z,9.40
2019-05-17T05:30:08.207Z,9.50
2019-05-17T05:31:13.303Z,9.50
2019-05-17T05:32:18.730Z,9.60
2019-05-17T05:33:23.413Z,9.70
2019-05-17T05:34:28.551Z,9.80
2019-05-17T05:35:33.302Z,9.90
2019-05-17T05:36:38.645Z,10.00
2019-05-17T05:37:43.329Z,10.10
2019-05-17T05:38:48.527Z,10.00
2019-05-17T05:39:54.579Z,9.90
2019-05-17T05:41:01.881Z,9.90
2019-05-17T05:42:11.521Z,9.90
2019-05-17T05:43:16.266Z,9.80
2019-05-17T05:44:21.530Z,9.70
2019-05-17T05:45:26.763Z,9.70
2019-05-17T05:46:34.645Z,9.80
2019-05-17T05:47:41.531Z,9.90
2019-05-17T05:48:46.346Z,10.00
2019-05-17T05:49:52.040Z,10.10
2019-05-17T05:50:56.826Z,10.20
2019-05-17T05:52:02.236Z,10.20
2019-05-17T05:53:07.154Z,10.20
2019-05-17T05:54:12.532Z,10.20
2019-05-17T05:55:17.269Z,10.30
2019-05-17T05:56:22.417Z,10.40
2019-05-17T05:57:32.217Z,10.40
2019-05-17T05:58:38.282Z,10.50
2019-05-17T05:59:42.940Z,10.60
2019-05-17T06:00:48.157Z,10.60
2019-05-17T06:01:52.788Z,10.70
2019-05-17T06:02:59.008Z,10.70
2019-05-17T06:04:04.755Z,10.70
2019-05-17T06:05:12.837Z,10.80
2019-05-17T06:06:16.522Z,10.80
2019-05-17T06:07:21.795Z,11.00
2019-05-17T06:08:26.468Z,11.10
2019-05-17T06:09:31.923Z,11.30
2019-05-17T06:10:39.443Z,11.40
2019-05-17T06:11:43.552Z,11.60
2019-05-17T06:12:48.197Z,11.70
2019-05-17T06:13:53.483Z,11.80
2019-05-17T06:14:58.113Z,11.90
2019-05-17T06:16:03.400Z,12.00
2019-05-17T06:17:08.024Z,12.00
2019-05-17T06:18:13.378Z,12.20
2019-05-17T06:19:17.971Z,12.30
2019-05-17T06:20:23.339Z,12.60
2019-05-17T06:21:28.122Z,13.00
2019-05-17T06:22:33.359Z,13.20
2019-05-17T06:23:37.994Z,13.60
2019-05-17T06:24:43.429Z,13.90
2019-05-17T06:25:48.150Z,14.10
2019-05-17T06:26:53.318Z,14.30
2019-05-17T06:27:58.061Z,14.60
2019-05-17T06:29:03.658Z,14.70
2019-05-17T06:30:08.760Z,14.70
2019-05-17T06:31:15.184Z,15.00
2019-05-17T06:32:22.547Z,15.20
2019-05-17T06:33:30.842Z,15.50
2019-05-17T06:34:33.244Z,15.90
2019-05-17T06:35:38.640Z,16.10
2019-05-17T06:36:43.320Z,15.90
2019-05-17T06:37:48.508Z,15.90
2019-05-17T06:38:53.207Z,16.20
2019-05-17T06:39:58.390Z,16.50
2019-05-17T06:41:04.238Z,16.70
2019-05-17T06:42:11.926Z,17.00
2019-05-17T06:43:16.020Z,17.30
2019-05-17T06:44:22.237Z,17.50
2019-05-17T06:45:28.241Z,17.40
2019-05-17T06:46:33.449Z,17.30
2019-05-17T06:47:38.405Z,17.10
2019-05-17T06:48:44.597Z,17.20
2019-05-17T06:49:50.637Z,17.50
2019-05-17T06:50:56.099Z,17.60
2019-05-17T06:52:02.460Z,18.00
2019-05-17T06:53:07.886Z,18.00
2019-05-17T06:54:12.488Z,18.40
2019-05-17T06:55:17.630Z,18.60
2019-05-17T06:56:22.987Z,18.50
2019-05-17T06:57:28.379Z,18.70
2019-05-17T06:58:32.946Z,18.80
2019-05-17T06:59:38.302Z,18.90
2019-05-17T07:00:42.898Z,18.70
2019-05-17T07:01:50.267Z,18.40
2019-05-17T07:02:54.385Z,18.00
2019-05-17T07:04:00.261Z,17.90
2019-05-17T07:05:09.929Z,17.90
2019-05-17T07:06:17.086Z,18.00
2019-05-17T07:07:30.178Z,18.30
2019-05-17T07:08:34.725Z,18.40
2019-05-17T07:09:40.081Z,18.30
2019-05-17T07:10:45.434Z,18.50
2019-05-17T07:11:51.326Z,18.60
2019-05-17T07:13:01.221Z,18.70
2019-05-17T07:14:02.954Z,18.40
2019-05-17T07:15:10.582Z,18.10
2019-05-17T07:16:14.706Z,18.10
2019-05-17T07:17:19.928Z,18.20
2019-05-17T07:18:24.507Z,18.60
2019-05-17T07:19:30.332Z,18.60
2019-05-17T07:20:35.183Z,18.50
2019-05-17T07:21:40.612Z,18.60
2019-05-17T07:22:45.437Z,18.90
2019-05-17T07:23:50.725Z,19.30
2019-05-17T07:24:55.350Z,19.00
2019-05-17T07:26:00.583Z,19.10
2019-05-17T07:27:05.389Z,18.80
2019-05-17T07:28:10.553Z,18.70
2019-05-17T07:29:15.144Z,18.90
2019-05-17T07:30:20.773Z,19.30
2019-05-17T07:31:25.698Z,19.50
2019-05-17T07:32:30.922Z,19.40
2019-05-17T07:33:35.510Z,19.50
2019-05-17T07:34:40.823Z,19.30
2019-05-17T07:35:45.491Z,19.60
2019-05-17T07:36:50.640Z,19.70
2019-05-17T07:37:55.338Z,19.60
2019-05-17T07:39:00.863Z,19.70
2019-05-17T07:40:07.184Z,19.90
2019-05-17T07:41:12.691Z,20.00
2019-05-17T07:42:19.456Z,20.00
2019-05-17T07:43:24.249Z,19.80
2019-05-17T07:44:29.527Z,20.00
2019-05-17T07:45:34.843Z,20.20
2019-05-17T07:46:40.137Z,20.40
2019-05-17T07:47:45.788Z,20.60
2019-05-17T07:48:50.414Z,20.90
2019-05-17T07:49:55.667Z,20.80
2019-05-17T07:51:00.450Z,20.80
2019-05-17T07:52:05.732Z,20.80
2019-05-17T07:53:10.606Z,20.80
2019-05-17T07:54:15.874Z,20.70
2019-05-17T07:55:22.987Z,20.60
2019-05-17T07:56:27.439Z,20.60
2019-05-17T07:57:32.094Z,20.60
2019-05-17T07:58:37.307Z,20.40
2019-05-17T07:59:41.969Z,20.00
2019-05-17T08:00:47.128Z,20.00
2019-05-17T08:01:52.011Z,19.60
2019-05-17T08:02:59.763Z,19.70
2019-05-17T08:04:03.570Z,19.60
2019-05-17T08:05:10.366Z,19.60
2019-05-17T08:06:15.212Z,19.40
2019-05-17T08:07:20.507Z,19.50
2019-05-17T08:08:25.259Z,19.70
2019-05-17T08:09:30.539Z,20.00
2019-05-17T08:10:35.123Z,20.40
2019-05-17T08:11:40.276Z,20.40
2019-05-17T08:12:44.888Z,20.30
2019-05-17T08:13:50.596Z,20.40
2019-05-17T08:14:56.442Z,20.20
2019-05-17T08:16:01.640Z,20.00
2019-05-17T08:17:07.221Z,19.90
2019-05-17T08:18:12.523Z,20.00
2019-05-17T08:19:17.198Z,20.10
2019-05-17T08:20:22.626Z,20.10
2019-05-17T08:21:27.262Z,20.40
2019-05-17T08:22:32.437Z,20.60
2019-05-17T08:23:37.137Z,20.70
2019-05-17T08:24:42.366Z,20.60
2019-05-17T08:25:53.735Z,20.50
2019-05-17T08:26:55.059Z,20.60
2019-05-17T08:27:59.691Z,20.80
2019-05-17T08:29:04.893Z,20.60
2019-05-17T08:30:11.727Z,20.30
2019-05-17T08:31:16.921Z,20.20
2019-05-17T08:32:21.528Z,20.20
2019-05-17T08:33:26.778Z,20.50
2019-05-17T08:34:31.443Z,20.90
2019-05-17T08:35:36.616Z,21.30
2019-05-17T08:36:41.319Z,21.50
2019-05-17T08:37:46.484Z,21.70
2019-05-17T08:38:51.226Z,21.60
2019-05-17T08:39:59.883Z,21.60
2019-05-17T08:41:03.843Z,21.60
2019-05-17T08:42:09.804Z,21.70
2019-05-17T08:43:14.636Z,21.70
2019-05-17T08:44:19.867Z,21.70
2019-05-17T08:45:24.506Z,21.50
2019-05-17T08:46:30.575Z,21.40
2019-05-17T08:47:35.367Z,21.10
2019-05-17T08:48:40.728Z,21.00
2019-05-17T08:49:45.318Z,21.00
2019-05-17T08:50:50.586Z,20.80
2019-05-17T08:51:55.387Z,20.50
2019-05-17T08:53:00.559Z,20.30
2019-05-17T08:54:05.250Z,20.20
2019-05-17T08:55:10.995Z,20.10
2019-05-17T08:56:15.725Z,19.90
2019-05-17T08:57:20.943Z,19.90
2019-05-17T08:58:25.579Z,19.80
2019-05-17T08:59:30.986Z,19.80
2019-05-17T09:00:35.761Z,19.80
2019-05-17T09:01:41.795Z,19.80
2019-05-17T09:02:46.758Z,19.70
2019-05-17T09:03:51.947Z,19.70
2019-05-17T09:04:56.699Z,19.70
2019-05-17T09:06:02.939Z,19.70
2019-05-17T09:07:09.482Z,19.60
2019-05-17T09:08:14.762Z,19.70
2019-05-17T09:09:20.448Z,19.70
2019-05-17T09:10:25.888Z,19.70
2019-05-17T09:11:30.594Z,19.50
2019-05-17T09:12:35.828Z,19.30
2019-05-17T09:13:54.366Z,19.20
2019-05-17T09:14:49.481Z,19.20
2019-05-17T09:15:54.115Z,19.30
2019-05-17T09:17:00.370Z,19.20
2019-05-17T09:18:05.171Z,19.00
2019-05-17T09:19:11.331Z,18.80
2019-05-17T09:20:16.085Z,18.80
2019-05-17T09:21:21.884Z,19.00
2019-05-17T09:22:26.862Z,19.10
2019-05-17T09:23:32.140Z,19.10
2019-05-17T09:24:36.807Z,19.10
2019-05-17T09:25:41.940Z,18.90
2019-05-17T09:26:46.564Z,18.80
2019-05-17T09:27:51.782Z,18.80
2019-05-17T09:28:56.384Z,18.70
2019-05-17T09:30:01.573Z,18.70
2019-05-17T09:31:07.433Z,18.70
2019-05-17T09:32:12.609Z,18.70
2019-05-17T09:33:19.146Z,18.60
2019-05-17T09:34:24.190Z,18.60
2019-05-17T09:35:30.077Z,18.60
2019-05-17T09:36:35.473Z,18.70
2019-05-17T09:37:41.695Z,18.90
2019-05-17T09:38:49.308Z,19.00
2019-05-17T09:39:54.468Z,19.20
2019-05-17T09:41:00.082Z,19.20
2019-05-17T09:42:05.220Z,19.30
2019-05-17T09:43:10.586Z,19.30
2019-05-17T09:44:16.669Z,19.10
2019-05-17T09:45:22.288Z,18.90
2019-05-17T09:46:27.002Z,18.90
2019-05-17T09:47:32.155Z,18.80
2019-05-17T09:48:39.693Z,18.70
2019-05-17T09:49:44.598Z,18.60
2019-05-17T09:50:50.468Z,18.50
2019-05-17T09:51:56.123Z,18.50
2019-05-17T09:53:00.742Z,18.40
2019-05-17T09:54:05.960Z,18.40
2019-05-17T09:55:11.151Z,18.40
2019-05-17T09:56:16.424Z,18.50
2019-05-17T09:57:21.243Z,18.60
2019-05-17T09:58:26.440Z,18.70
2019-05-17T09:59:31.188Z,18.80
2019-05-17T10:00:37.074Z,18.90
2019-05-17T10:01:41.809Z,18.80
2019-05-17T10:02:47.016Z,18.80
2019-05-17T10:03:51.689Z,19.00
2019-05-17T10:04:57.069Z,19.20
2019-05-17T10:06:01.745Z,19.20
2019-05-17T10:07:07.024Z,19.20
2019-05-17T10:08:11.725Z,19.20
2019-05-17T10:09:19.485Z,19.20
2019-05-17T10:10:24.673Z,19.20
2019-05-17T10:11:30.734Z,19.30
2019-05-17T10:12:35.719Z,19.30
2019-05-17T10:13:40.973Z,19.30
2019-05-17T10:14:45.648Z,19.30
2019-05-17T10:15:50.867Z,19.10
2019-05-17T10:16:55.568Z,19.10
2019-05-17T10:18:00.785Z,19.10
2019-05-17T10:19:05.629Z,19.20
2019-05-17T10:20:11.360Z,19.20
2019-05-17T10:21:16.012Z,19.20
2019-05-17T10:22:21.133Z,19.30
2019-05-17T10:23:25.771Z,19.30
2019-05-17T10:24:38.536Z,19.20
2019-05-17T10:25:40.005Z,19.20
2019-05-17T10:26:45.115Z,19.00
2019-05-17T10:27:50.798Z,19.00
2019-05-17T10:28:55.948Z,19.10
2019-05-17T10:30:00.574Z,19.00
2019-05-17T10:31:05.761Z,18.90
2019-05-17T10:32:10.643Z,18.90
2019-05-17T10:33:16.871Z,18.70
2019-05-17T10:34:21.518Z,18.70
2019-05-17T10:35:26.800Z,18.60
2019-05-17T10:36:31.360Z,18.70
2019-05-17T10:37:36.528Z,18.70
2019-05-17T10:38:41.198Z,18.60
2019-05-17T10:39:46.866Z,18.60
2019-05-17T10:40:51.537Z,18.60
2019-05-17T10:41:57.733Z,18.70
2019-05-17T10:43:02.359Z,18.70
2019-05-17T10:44:09.446Z,18.80
2019-05-17T10:45:14.058Z,18.80
2019-05-17T10:46:20.522Z,18.80
2019-05-17T10:47:26.394Z,18.80
2019-05-17T10:48:31.656Z,18.90
2019-05-17T10:49:36.372Z,18.90
2019-05-17T10:50:41.544Z,19.00
2019-05-17T10:51:46.111Z,19.00
2019-05-17T10:52:51.298Z,19.10
2019-05-17T10:53:56.056Z,19.20
2019-05-17T10:55:01.203Z,19.30
2019-05-17T10:56:06.904Z,19.40
2019-05-17T10:57:12.103Z,19.40
2019-05-17T10:58:21.018Z,19.40
2019-05-17T10:59:24.592Z,19.40
2019-05-17T11:00:30.390Z,19.40
2019-05-17T11:01:35.828Z,19.50
2019-05-17T11:02:40.583Z,19.50
2019-05-17T11:03:45.798Z,19.50
2019-05-17T11:04:50.755Z,19.60
2019-05-17T11:05:56.211Z,19.60
2019-05-17T11:07:01.744Z,19.70
2019-05-17T11:08:07.130Z,19.70
2019-05-17T11:09:11.764Z,19.60
2019-05-17T11:10:19.276Z,19.70
2019-05-17T11:11:23.606Z,19.60
2019-05-17T11:12:28.738Z,19.60
2019-05-17T11:13:33.869Z,19.50
2019-05-17T11:14:52.129Z,19.50
2019-05-17T11:15:45.267Z,19.50
2019-05-17T11:16:50.451Z,19.50
2019-05-17T11:17:55.128Z,19.50
2019-05-17T11:19:00.335Z,19.50
2019-05-17T11:20:06.220Z,19.50
2019-05-17T11:21:11.368Z,19.40
2019-05-17T11:22:16.050Z,19.50
2019-05-17T11:23:21.325Z,19.50
2019-05-17T11:24:26.058Z,19.40
2019-05-17T11:25:31.277Z,19.50
2019-05-17T11:26:35.915Z,19.50
2019-05-17T11:27:41.098Z,19.50
2019-05-17T11:28:45.701Z,19.50
2019-05-17T11:29:50.864Z,19.40
2019-05-17T11:30:55.482Z,19.50
2019-05-17T11:32:00.629Z,19.50
2019-05-17T11:33:05.355Z,19.50
2019-05-17T11:34:10.551Z,19.70
2019-05-17T11:35:15.405Z,19.70
2019-05-17T11:36:20.727Z,19.80
2019-05-17T11:37:25.340Z,19.90
2019-05-17T11:38:30.535Z,19.90
2019-05-17T11:39:35.167Z,19.80
2019-05-17T11:40:40.473Z,19.90
2019-05-17T11:41:45.038Z,19.90
2019-05-17T11:42:50.171Z,20.00
2019-05-17T11:43:55.745Z,20.10
2019-05-17T11:45:00.906Z,20.10
2019-05-17T11:46:06.939Z,20.10
2019-05-17T11:47:12.177Z,20.00
2019-05-17T11:48:16.884Z,19.90
2019-05-17T11:49:23.029Z,19.80
2019-05-17T11:50:27.629Z,19.80
2019-05-17T11:51:33.042Z,19.80
2019-05-17T11:52:38.080Z,19.80
2019-05-17T11:53:43.336Z,19.90
2019-05-17T11:54:48.021Z,19.90
2019-05-17T11:55:53.205Z,20.00
2019-05-17T11:56:57.852Z,20.00
2019-05-17T11:58:03.016Z,19.90
2019-05-17T11:59:07.743Z,19.90
2019-05-17T12:00:13.947Z,20.00
2019-05-17T12:01:18.598Z,20.00
2019-05-17T12:02:23.804Z,20.10
2019-05-17T12:03:28.487Z,20.30
2019-05-17T12:04:33.833Z,20.40
2019-05-17T12:05:38.448Z,20.40
2019-05-17T12:06:43.815Z,20.30
2019-05-17T12:07:48.487Z,20.20
2019-05-17T12:08:53.648Z,20.00
2019-05-17T12:09:58.332Z,19.80
2019-05-17T12:11:03.580Z,19.70
2019-05-17T12:12:08.252Z,19.70
2019-05-17T12:13:13.424Z,19.80
2019-05-17T12:14:18.091Z,19.70
2019-05-17T12:15:23.245Z,19.70
2019-05-17T12:16:27.856Z,19.70
2019-05-17T12:17:33.029Z,19.70
2019-05-17T12:18:38.160Z,19.80
2019-05-17T12:19:43.401Z,19.70
2019-05-17T12:20:48.163Z,19.70
2019-05-17T12:21:53.376Z,19.70
2019-05-17T12:22:57.969Z,19.60
2019-05-17T12:24:03.164Z,19.50
2019-05-17T12:25:08.171Z,19.40
2019-05-17T12:26:13.436Z,19.40
2019-05-17T12:27:18.057Z,19.30
2019-05-17T12:28:23.380Z,19.30
2019-05-17T12:29:27.995Z,19.20
2019-05-17T12:30:33.143Z,19.10
2019-05-17T12:31:38.014Z,19.00
2019-05-17T12:32:43.180Z,19.00
2019-05-17T12:33:47.789Z,18.90
2019-05-17T12:34:53.063Z,18.80
2019-05-17T12:35:57.671Z,18.70
2019-05-17T12:37:02.918Z,18.70
2019-05-17T12:38:07.604Z,18.70
2019-05-17T12:39:12.850Z,18.60
2019-05-17T12:40:17.713Z,18.60
2019-05-17T12:41:22.877Z,18.60
2019-05-17T12:42:27.467Z,18.60
2019-05-17T12:43:32.624Z,18.60
2019-05-17T12:44:37.510Z,18.50
2019-05-17T12:45:42.671Z,18.40
2019-05-17T12:46:47.333Z,18.40
2019-05-17T12:47:53.484Z,18.40
2019-05-17T12:48:58.078Z,18.40
2019-05-17T12:50:03.272Z,18.40
2019-05-17T12:51:07.840Z,18.40
2019-05-17T12:52:13.004Z,18.30
2019-05-17T12:53:17.631Z,18.40
2019-05-17T12:54:22.994Z,18.50
2019-05-17T12:55:27.700Z,18.60
2019-05-17T12:56:32.874Z,18.70
2019-05-17T12:57:38.167Z,18.80
2019-05-17T12:58:43.339Z,18.80
2019-05-17T12:59:47.949Z,18.80
2019-05-17T13:00:54.158Z,18.70
2019-05-17T13:01:58.810Z,18.70
2019-05-17T13:03:03.959Z,18.80
2019-05-17T13:04:08.939Z,18.90
2019-05-17T13:05:14.465Z,19.00
2019-05-17T13:06:19.043Z,19.10
2019-05-17T13:07:24.187Z,19.20
2019-05-17T13:08:28.786Z,19.30
2019-05-17T13:09:33.961Z,19.30
2019-05-17T13:10:38.624Z,19.30
2019-05-17T13:11:43.762Z,19.30
2019-05-17T13:12:48.339Z,19.40
2019-05-17T13:13:53.529Z,19.50
2019-05-17T13:14:58.152Z,19.60
2019-05-17T13:16:16.758Z,19.50
2019-05-17T13:17:09.597Z,19.50
2019-05-17T13:18:14.737Z,19.50
2019-05-17T13:19:19.465Z,19.30
2019-05-17T13:20:24.874Z,19.30
2019-05-17T13:21:29.469Z,19.20
2019-05-17T13:22:34.654Z,19.10
2019-05-17T13:23:39.296Z,19.00
2019-05-17T13:24:44.541Z,18.80
2019-05-17T13:25:49.256Z,18.80
2019-05-17T13:26:54.449Z,18.90
2019-05-17T13:27:59.060Z,18.80
2019-05-17T13:29:04.357Z,18.90
2019-05-17T13:30:09.911Z,18.90
2019-05-17T13:31:15.084Z,18.90
2019-05-17T13:32:19.723Z,19.00
2019-05-17T13:33:28.425Z,18.90
2019-05-17T13:34:31.124Z,18.90
2019-05-17T13:35:36.274Z,18.90
2019-05-17T13:36:41.278Z,18.90
2019-05-17T13:37:46.582Z,18.90
2019-05-17T13:38:51.311Z,18.90
2019-05-17T13:39:56.436Z,18.90
2019-05-17T13:41:01.056Z,18.80
2019-05-17T13:42:06.214Z,18.80
2019-05-17T13:43:10.824Z,18.80
2019-05-17T13:44:17.075Z,18.80
2019-05-17T13:45:21.765Z,18.80
2019-05-17T13:46:33.222Z,18.90
2019-05-17T13:47:33.434Z,18.90
2019-05-17T13:48:38.806Z,18.90
2019-05-17T13:49:43.445Z,19.00
2019-05-17T13:50:51.831Z,19.00
2019-05-17T13:51:54.961Z,19.00
2019-05-17T13:53:00.203Z,19.00
2019-05-17T13:54:04.948Z,19.00
2019-05-17T13:55:10.734Z,19.00
2019-05-17T13:56:15.334Z,19.00
2019-05-17T13:57:20.656Z,19.10
2019-05-17T13:58:26.384Z,19.20
2019-05-17T13:59:31.655Z,19.10
2019-05-17T14:00:36.588Z,19.10
2019-05-17T14:01:41.756Z,19.10
2019-05-17T14:02:46.443Z,19.20
2019-05-17T14:03:51.683Z,19.30
2019-05-17T14:04:56.316Z,19.40
2019-05-17T14:06:01.541Z,19.60
2019-05-17T14:07:06.176Z,19.60
2019-05-17T14:08:11.289Z,19.80
2019-05-17T14:09:15.904Z,19.90
2019-05-17T14:10:27.740Z,19.90
2019-05-17T14:11:28.020Z,20.10
2019-05-17T14:12:33.191Z,20.10